Virtual Futura



 METAR AND TAF INFORMATION
METAR FOR EGHH
ADDS - METARS form results

(1201 UTC 19 July 2019)
Data provider http://aviationweather.gov/metar/data/
 
METAR text: EGHH 191150Z 22010KT 6000 -DZ BKN004 17/17 Q1010
Conditions at: EGHH (BOURNEMOUTH AIRP, GB) observed 1150 UTC 19 July 2019
Temperature: 17.0°C (63°F)
Dewpoint: 17.0°C (63°F) [RH = 100%]
Pressure (altimeter): 29.82 inches Hg (1010.0 mb)
Winds: from the SW (220 degrees) at 12 MPH (10 knots; 5.1 m/s)
Visibility: 4 miles ( 6 km)
Ceiling: 400 feet AGL
Clouds: broken clouds at 400 feet AGL
Weather: -DZ  (light drizzle)

METAR text: EGHH 191120Z 22011KT 4500 -DZ BR BKN003 17/17 Q1010
Conditions at: EGHH (BOURNEMOUTH AIRP, GB) observed 1120 UTC 19 July 2019
Temperature: 17.0°C (63°F)
Dewpoint: 17.0°C (63°F) [RH = 100%]
Pressure (altimeter): 29.82 inches Hg (1010.0 mb)
Winds: from the SW (220 degrees) at 13 MPH (11 knots; 5.7 m/s)
Visibility: 2.80 miles (4.51 km)
Ceiling: 300 feet AGL
Clouds: broken clouds at 300 feet AGL
Weather: -DZ BR  (light drizzle, mist)

Forecast for: EGHH (BOURNEMOUTH AIRP, GB)
Text: TAF EGHH 191118Z 1912/1921 24014KT 9999 SCT012 BKN030
Forecast period: 1200 to 2100 UTC 19 July 2019
Forecast type: FROM: standard forecast or significant change
Winds: from the WSW (240 degrees) at 16 MPH (14 knots; 7.2 m/s)
Visibility: 6 or more miles 10+ km)
Ceiling: 3000 feet AGL
Clouds: scattered clouds at 1200 feet AGL
broken clouds at 3000 feet AGL
Weather: no significant weather forecast for this period
Text: TEMPO 1912/1921 6000 RA BKN009
Forecast period: 1200 to 2100 UTC 19 July 2019
Forecast type: TEMPORARY: The following changes expected for less than half the time period
Visibility: 4 miles (6 km)
Ceiling: 900 feet AGL
Clouds: broken clouds at 900 feet AGL
Weather: RA  (moderate rain)
Text: PROB30
Forecast period: 1200 to 2100 UTC 19 July 2019
Forecast type: TEMPORARY: The following changes expected for less than half the time period
Winds: from the SSW (210 degrees) at 17 MPH (15 knots; 7.7 m/s)
gusting to 29 MPH (25 knots; 12.9 m/s)
Visibility: 1.86 miles (2.99 km)
Ceiling: 400 feet AGL
Clouds: broken clouds at 400 feet AGL
Weather: +RA BR  (heavy rain, mist)

 AIRPORT MAP

 RUNWAY INFORMATION
Runway 08 Runway length 7451 ft Runway width 151 ft
Runway elevation 38 ft Runway displaced threshold 1383 ft Runway heading 75
Runway 26 Runway length 7451 ft Runway width 151 ft
Runway elevation 31 ft Runway displaced threshold 0 ft Runway heading 255

 AIRPORT FREQUENCIES
Type APP Name APP Frequency 119.475 MHZ
Type ATIS Name ATIS Frequency 121.95 MHZ
Type GND Name GND Frequency 121.7 MHZ
Type TWR Name TWR Frequency 125.6 MHZ

 AIRPORT NEAR NAVIGATION AIDS

Poltica de Cookies

Esta web utiliza cookies para obtener datos estadsticos de la navegacin de sus usuarios. Si continas navegando consideramos que aceptas su uso. Ms informacin X Cerrar